sensor_id;sensor_type;location;lat;lon;timestamp;pressure;altitude;pressure_sealevel;temperature;humidity
27840;BME280;15207;42.182;24.308;2024-03-06T00:02:08;98983.19;;;8.18;100.00
27840;BME280;15207;42.182;24.308;2024-03-06T00:04:34;98979.09;;;8.26;100.00
27840;BME280;15207;42.182;24.308;2024-03-06T00:06:59;98982.50;;;8.28;100.00
27840;BME280;15207;42.182;24.308;2024-03-06T00:09:26;98980.56;;;8.30;100.00
27840;BME280;15207;42.182;24.308;2024-03-06T00:11:55;98986.38;;;8.24;100.00
27840;BME280;15207;42.182;24.308;2024-03-06T00:14:21;98981.50;;;8.17;100.00
27840;BME280;15207;42.182;24.308;2024-03-06T00:16:47;98983.09;;;8.20;100.00
27840;BME280;15207;42.182;24.308;2024-03-06T00:19:13;98987.75;;;8.29;100.00
27840;BME280;15207;42.182;24.308;2024-03-06T00:21:39;98989.81;;;8.13;100.00
27840;BME280;15207;42.182;24.308;2024-03-06T00:24:04;98984.84;;;8.08;100.00
27840;BME280;15207;42.182;24.308;2024-03-06T00:26:30;98994.66;;;8.07;100.00
27840;BME280;15207;42.182;24.308;2024-03-06T00:28:55;98991.81;;;7.98;100.00
27840;BME280;15207;42.182;24.308;2024-03-06T00:31:21;98998.19;;;8.08;100.00
27840;BME280;15207;42.182;24.308;2024-03-06T00:33:46;98997.81;;;7.88;100.00
27840;BME280;15207;42.182;24.308;2024-03-06T00:36:20;98998.28;;;7.82;100.00
27840;BME280;15207;42.182;24.308;2024-03-06T00:38:47;98997.16;;;7.98;100.00
27840;BME280;15207;42.182;24.308;2024-03-06T00:41:13;98993.97;;;7.92;100.00
27840;BME280;15207;42.182;24.308;2024-03-06T00:43:38;99003.72;;;8.05;100.00
27840;BME280;15207;42.182;24.308;2024-03-06T00:46:03;99001.06;;;8.05;100.00
27840;BME280;15207;42.182;24.308;2024-03-06T00:48:29;99001.22;;;7.90;100.00
27840;BME280;15207;42.182;24.308;2024-03-06T00:50:54;98991.88;;;7.85;100.00
27840;BME280;15207;42.182;24.308;2024-03-06T00:53:20;99007.16;;;7.70;100.00
27840;BME280;15207;42.182;24.308;2024-03-06T00:55:46;99008.00;;;7.70;100.00
27840;BME280;15207;42.182;24.308;2024-03-06T00:58:11;99013.03;;;7.62;100.00
27840;BME280;15207;42.182;24.308;2024-03-06T01:00:37;99017.84;;;7.57;100.00
27840;BME280;15207;42.182;24.308;2024-03-06T01:03:03;99013.97;;;7.74;100.00
27840;BME280;15207;42.182;24.308;2024-03-06T01:05:29;99009.31;;;7.51;100.00
27840;BME280;15207;42.182;24.308;2024-03-06T01:07:54;99021.56;;;7.54;100.00
27840;BME280;15207;42.182;24.308;2024-03-06T01:10:21;99017.44;;;7.37;100.00
27840;BME280;15207;42.182;24.308;2024-03-06T01:12:47;99014.22;;;7.45;100.00
27840;BME280;15207;42.182;24.308;2024-03-06T01:15:13;99021.06;;;7.23;100.00
27840;BME280;15207;42.182;24.308;2024-03-06T01:17:39;99016.91;;;7.19;100.00
27840;BME280;15207;42.182;24.308;2024-03-06T01:20:05;99022.56;;;7.40;100.00
27840;BME280;15207;42.182;24.308;2024-03-06T01:22:33;99024.16;;;7.17;100.00
27840;BME280;15207;42.182;24.308;2024-03-06T01:24:58;99023.19;;;7.18;100.00
27840;BME280;15207;42.182;24.308;2024-03-06T01:27:24;99022.66;;;7.12;100.00
27840;BME280;15207;42.182;24.308;2024-03-06T01:29:50;99032.47;;;7.12;100.00
27840;BME280;15207;42.182;24.308;2024-03-06T01:32:15;99031.19;;;7.05;100.00
27840;BME280;15207;42.182;24.308;2024-03-06T01:34:41;99035.66;;;7.04;100.00
27840;BME280;15207;42.182;24.308;2024-03-06T01:37:06;99035.25;;;7.23;100.00
27840;BME280;15207;42.182;24.308;2024-03-06T01:39:32;99031.91;;;7.07;100.00
27840;BME280;15207;42.182;24.308;2024-03-06T01:41:58;99032.88;;;7.06;100.00
27840;BME280;15207;42.182;24.308;2024-03-06T01:44:24;99031.38;;;7.14;100.00
27840;BME280;15207;42.182;24.308;2024-03-06T01:46:49;99036.19;;;7.09;100.00
27840;BME280;15207;42.182;24.308;2024-03-06T01:49:15;99033.31;;;7.12;100.00
27840;BME280;15207;42.182;24.308;2024-03-06T01:51:42;99032.59;;;7.10;100.00
27840;BME280;15207;42.182;24.308;2024-03-06T01:54:10;99038.66;;;7.12;100.00
27840;BME280;15207;42.182;24.308;2024-03-06T01:56:39;99041.94;;;7.03;100.00
27840;BME280;15207;42.182;24.308;2024-03-06T01:59:08;99044.06;;;6.98;100.00
27840;BME280;15207;42.182;24.308;2024-03-06T02:01:33;99041.75;;;7.06;100.00
27840;BME280;15207;42.182;24.308;2024-03-06T02:03:59;99051.72;;;7.03;100.00
27840;BME280;15207;42.182;24.308;2024-03-06T02:06:25;99051.00;;;7.00;100.00
27840;BME280;15207;42.182;24.308;2024-03-06T02:08:51;99045.56;;;6.89;100.00
27840;BME280;15207;42.182;24.308;2024-03-06T02:11:16;99049.28;;;6.86;100.00
27840;BME280;15207;42.182;24.308;2024-03-06T02:13:42;99058.44;;;6.95;100.00
27840;BME280;15207;42.182;24.308;2024-03-06T02:16:09;99056.84;;;7.06;100.00
27840;BME280;15207;42.182;24.308;2024-03-06T02:18:35;99054.19;;;7.32;100.00
27840;BME280;15207;42.182;24.308;2024-03-06T02:21:00;99055.06;;;7.45;100.00
27840;BME280;15207;42.182;24.308;2024-03-06T02:23:26;99054.63;;;7.38;100.00
27840;BME280;15207;42.182;24.308;2024-03-06T02:25:51;99065.63;;;7.34;100.00
27840;BME280;15207;42.182;24.308;2024-03-06T02:28:16;99058.88;;;7.28;100.00
27840;BME280;15207;42.182;24.308;2024-03-06T02:30:43;99070.94;;;7.34;100.00
27840;BME280;15207;42.182;24.308;2024-03-06T02:33:08;99068.38;;;7.32;100.00
27840;BME280;15207;42.182;24.308;2024-03-06T02:35:35;99072.66;;;7.35;100.00
27840;BME280;15207;42.182;24.308;2024-03-06T02:38:02;99069.88;;;7.49;100.00
27840;BME280;15207;42.182;24.308;2024-03-06T02:40:30;99072.75;;;7.20;100.00
27840;BME280;15207;42.182;24.308;2024-03-06T02:42:56;99069.44;;;7.17;100.00
27840;BME280;15207;42.182;24.308;2024-03-06T02:45:21;99066.78;;;7.17;100.00
27840;BME280;15207;42.182;24.308;2024-03-06T02:47:46;99066.53;;;7.07;100.00
27840;BME280;15207;42.182;24.308;2024-03-06T02:50:12;99062.94;;;7.21;100.00
27840;BME280;15207;42.182;24.308;2024-03-06T02:52:39;99067.94;;;6.99;100.00
27840;BME280;15207;42.182;24.308;2024-03-06T02:55:05;99063.78;;;7.21;100.00
27840;BME280;15207;42.182;24.308;2024-03-06T02:57:30;99060.25;;;7.08;100.00
27840;BME280;15207;42.182;24.308;2024-03-06T02:59:57;99067.41;;;7.20;100.00
27840;BME280;15207;42.182;24.308;2024-03-06T03:02:22;99063.03;;;7.06;100.00
27840;BME280;15207;42.182;24.308;2024-03-06T03:04:49;99062.50;;;6.88;100.00
27840;BME280;15207;42.182;24.308;2024-03-06T03:07:14;99063.41;;;6.87;100.00
27840;BME280;15207;42.182;24.308;2024-03-06T03:09:40;99063.75;;;6.95;100.00
27840;BME280;15207;42.182;24.308;2024-03-06T03:12:06;99057.06;;;7.03;100.00
27840;BME280;15207;42.182;24.308;2024-03-06T03:14:31;99065.25;;;6.86;100.00
27840;BME280;15207;42.182;24.308;2024-03-06T03:16:57;99062.59;;;6.86;100.00
27840;BME280;15207;42.182;24.308;2024-03-06T03:19:22;99068.56;;;6.90;100.00
27840;BME280;15207;42.182;24.308;2024-03-06T03:21:47;99072.78;;;6.80;100.00
27840;BME280;15207;42.182;24.308;2024-03-06T03:24:13;99071.31;;;6.88;100.00
27840;BME280;15207;42.182;24.308;2024-03-06T03:26:38;99072.16;;;6.76;100.00
27840;BME280;15207;42.182;24.308;2024-03-06T03:29:03;99075.66;;;6.77;100.00
27840;BME280;15207;42.182;24.308;2024-03-06T03:31:29;99077.16;;;6.81;100.00
27840;BME280;15207;42.182;24.308;2024-03-06T03:33:54;99076.31;;;6.80;100.00
27840;BME280;15207;42.182;24.308;2024-03-06T03:36:20;99075.91;;;6.86;100.00
27840;BME280;15207;42.182;24.308;2024-03-06T03:38:45;99080.84;;;6.65;100.00
27840;BME280;15207;42.182;24.308;2024-03-06T03:41:12;99069.13;;;6.68;100.00
27840;BME280;15207;42.182;24.308;2024-03-06T03:43:41;99067.75;;;6.75;100.00
27840;BME280;15207;42.182;24.308;2024-03-06T03:46:06;99074.59;;;6.79;100.00
27840;BME280;15207;42.182;24.308;2024-03-06T03:48:32;99074.50;;;6.94;100.00
27840;BME280;15207;42.182;24.308;2024-03-06T03:51:01;99077.28;;;6.92;100.00
27840;BME280;15207;42.182;24.308;2024-03-06T03:53:28;99076.34;;;7.06;100.00
27840;BME280;15207;42.182;24.308;2024-03-06T03:55:53;99086.03;;;7.07;100.00
27840;BME280;15207;42.182;24.308;2024-03-06T03:58:19;99072.19;;;7.02;100.00
27840;BME280;15207;42.182;24.308;2024-03-06T04:00:44;99085.41;;;7.04;100.00
27840;BME280;15207;42.182;24.308;2024-03-06T04:03:09;99076.75;;;7.00;100.00
27840;BME280;15207;42.182;24.308;2024-03-06T04:05:35;99086.16;;;7.06;100.00
27840;BME280;15207;42.182;24.308;2024-03-06T04:08:00;99081.97;;;7.01;100.00
27840;BME280;15207;42.182;24.308;2024-03-06T04:10:26;99085.75;;;6.71;100.00
27840;BME280;15207;42.182;24.308;2024-03-06T04:12:51;99094.78;;;6.69;100.00
27840;BME280;15207;42.182;24.308;2024-03-06T04:15:17;99079.06;;;6.38;100.00
27840;BME280;15207;42.182;24.308;2024-03-06T04:17:42;99091.41;;;6.39;100.00
27840;BME280;15207;42.182;24.308;2024-03-06T04:20:08;99098.72;;;6.35;100.00
27840;BME280;15207;42.182;24.308;2024-03-06T04:22:38;99102.22;;;6.36;100.00
27840;BME280;15207;42.182;24.308;2024-03-06T04:25:03;99097.78;;;6.37;100.00
27840;BME280;15207;42.182;24.308;2024-03-06T04:27:30;99100.66;;;6.19;100.00
27840;BME280;15207;42.182;24.308;2024-03-06T04:29:55;99104.81;;;6.23;100.00
27840;BME280;15207;42.182;24.308;2024-03-06T04:32:20;99115.56;;;6.07;100.00
27840;BME280;15207;42.182;24.308;2024-03-06T04:34:46;99115.69;;;6.05;100.00
27840;BME280;15207;42.182;24.308;2024-03-06T04:37:11;99102.88;;;5.98;100.00
27840;BME280;15207;42.182;24.308;2024-03-06T04:39:37;99116.25;;;5.96;100.00
27840;BME280;15207;42.182;24.308;2024-03-06T04:42:03;99109.81;;;5.86;100.00
27840;BME280;15207;42.182;24.308;2024-03-06T04:44:28;99105.06;;;5.76;100.00
27840;BME280;15207;42.182;24.308;2024-03-06T04:46:54;99115.38;;;5.81;100.00
27840;BME280;15207;42.182;24.308;2024-03-06T04:49:19;99108.63;;;5.90;100.00
27840;BME280;15207;42.182;24.308;2024-03-06T04:51:45;99105.06;;;6.05;100.00
27840;BME280;15207;42.182;24.308;2024-03-06T04:54:10;99107.00;;;6.02;100.00
27840;BME280;15207;42.182;24.308;2024-03-06T04:56:35;99109.09;;;5.96;100.00
27840;BME280;15207;42.182;24.308;2024-03-06T04:59:01;99123.47;;;6.08;100.00
27840;BME280;15207;42.182;24.308;2024-03-06T05:01:29;99115.59;;;5.92;100.00
27840;BME280;15207;42.182;24.308;2024-03-06T05:03:54;99113.69;;;6.09;100.00
27840;BME280;15207;42.182;24.308;2024-03-06T05:06:21;99121.19;;;6.17;100.00
27840;BME280;15207;42.182;24.308;2024-03-06T05:08:47;99125.53;;;6.18;100.00
27840;BME280;15207;42.182;24.308;2024-03-06T05:11:12;99133.81;;;5.99;100.00
27840;BME280;15207;42.182;24.308;2024-03-06T05:13:38;99126.97;;;5.94;100.00
27840;BME280;15207;42.182;24.308;2024-03-06T05:16:03;99127.44;;;5.87;100.00
27840;BME280;15207;42.182;24.308;2024-03-06T05:18:29;99126.97;;;5.94;100.00
27840;BME280;15207;42.182;24.308;2024-03-06T05:20:55;99139.69;;;5.89;100.00
27840;BME280;15207;42.182;24.308;2024-03-06T05:23:20;99134.47;;;5.88;100.00
27840;BME280;15207;42.182;24.308;2024-03-06T05:25:46;99150.41;;;5.88;100.00
27840;BME280;15207;42.182;24.308;2024-03-06T05:28:11;99147.84;;;5.86;100.00
27840;BME280;15207;42.182;24.308;2024-03-06T05:30:36;99154.41;;;5.80;100.00
27840;BME280;15207;42.182;24.308;2024-03-06T05:33:02;99162.00;;;5.72;100.00
27840;BME280;15207;42.182;24.308;2024-03-06T05:35:27;99167.22;;;5.74;100.00
27840;BME280;15207;42.182;24.308;2024-03-06T05:37:52;99167.59;;;5.82;100.00
27840;BME280;15207;42.182;24.308;2024-03-06T05:40:18;99162.66;;;5.90;100.00
27840;BME280;15207;42.182;24.308;2024-03-06T05:42:43;99171.41;;;6.07;100.00
27840;BME280;15207;42.182;24.308;2024-03-06T05:45:09;99172.94;;;6.26;100.00
27840;BME280;15207;42.182;24.308;2024-03-06T05:47:37;99178.25;;;6.26;100.00
27840;BME280;15207;42.182;24.308;2024-03-06T05:50:04;99171.28;;;6.38;100.00
27840;BME280;15207;42.182;24.308;2024-03-06T05:52:31;99181.50;;;6.58;100.00
27840;BME280;15207;42.182;24.308;2024-03-06T05:54:56;99181.16;;;6.78;100.00
27840;BME280;15207;42.182;24.308;2024-03-06T05:57:22;99179.16;;;7.09;100.00
27840;BME280;15207;42.182;24.308;2024-03-06T05:59:47;99181.00;;;7.34;100.00
27840;BME280;15207;42.182;24.308;2024-03-06T06:02:13;99181.16;;;7.59;100.00
27840;BME280;15207;42.182;24.308;2024-03-06T06:04:38;99186.50;;;7.85;100.00
27840;BME280;15207;42.182;24.308;2024-03-06T06:07:03;99192.03;;;7.94;100.00
27840;BME280;15207;42.182;24.308;2024-03-06T06:09:29;99185.38;;;8.26;100.00
27840;BME280;15207;42.182;24.308;2024-03-06T06:11:54;99186.94;;;8.55;100.00
27840;BME280;15207;42.182;24.308;2024-03-06T06:14:20;99189.16;;;8.74;100.00
27840;BME280;15207;42.182;24.308;2024-03-06T06:16:45;99191.41;;;8.92;100.00
27840;BME280;15207;42.182;24.308;2024-03-06T06:19:10;99192.13;;;9.07;100.00
27840;BME280;15207;42.182;24.308;2024-03-06T06:21:36;99195.53;;;9.20;100.00
27840;BME280;15207;42.182;24.308;2024-03-06T06:24:03;99190.78;;;9.37;100.00
27840;BME280;15207;42.182;24.308;2024-03-06T06:26:29;99198.44;;;9.53;100.00
27840;BME280;15207;42.182;24.308;2024-03-06T06:28:56;99195.94;;;9.74;100.00
27840;BME280;15207;42.182;24.308;2024-03-06T06:31:22;99191.09;;;9.91;100.00
27840;BME280;15207;42.182;24.308;2024-03-06T06:33:47;99194.41;;;10.06;100.00
27840;BME280;15207;42.182;24.308;2024-03-06T06:36:12;99193.44;;;10.18;100.00
27840;BME280;15207;42.182;24.308;2024-03-06T06:38:38;99190.78;;;10.30;100.00
27840;BME280;15207;42.182;24.308;2024-03-06T06:41:03;99190.28;;;10.48;100.00
27840;BME280;15207;42.182;24.308;2024-03-06T06:43:29;99189.53;;;10.23;100.00
27840;BME280;15207;42.182;24.308;2024-03-06T06:45:55;99194.78;;;10.58;100.00
27840;BME280;15207;42.182;24.308;2024-03-06T06:48:20;99188.09;;;10.64;99.33
27840;BME280;15207;42.182;24.308;2024-03-06T06:50:46;99186.38;;;10.75;100.00
27840;BME280;15207;42.182;24.308;2024-03-06T06:53:13;99178.53;;;10.83;100.00
27840;BME280;15207;42.182;24.308;2024-03-06T06:55:39;99188.84;;;10.99;99.08
27840;BME280;15207;42.182;24.308;2024-03-06T06:58:04;99189.94;;;10.96;97.20
27840;BME280;15207;42.182;24.308;2024-03-06T07:00:29;99184.06;;;11.03;99.45
27840;BME280;15207;42.182;24.308;2024-03-06T07:02:55;99183.53;;;11.20;100.00
27840;BME280;15207;42.182;24.308;2024-03-06T07:05:23;99183.06;;;11.15;98.79
27840;BME280;15207;42.182;24.308;2024-03-06T07:07:49;99187.56;;;11.15;99.86
27840;BME280;15207;42.182;24.308;2024-03-06T07:10:14;99185.50;;;11.40;98.20
27840;BME280;15207;42.182;24.308;2024-03-06T07:12:40;99188.13;;;11.51;95.89
27840;BME280;15207;42.182;24.308;2024-03-06T07:15:05;99183.16;;;11.46;96.31
27840;BME280;15207;42.182;24.308;2024-03-06T07:17:32;99189.34;;;11.68;94.79
27840;BME280;15207;42.182;24.308;2024-03-06T07:19:57;99186.16;;;11.53;95.91
27840;BME280;15207;42.182;24.308;2024-03-06T07:22:23;99181.97;;;11.60;93.80
27840;BME280;15207;42.182;24.308;2024-03-06T07:24:48;99190.59;;;11.85;92.60
27840;BME280;15207;42.182;24.308;2024-03-06T07:27:14;99200.00;;;12.01;94.37
27840;BME280;15207;42.182;24.308;2024-03-06T07:29:39;99183.25;;;12.09;93.02
27840;BME280;15207;42.182;24.308;2024-03-06T07:32:05;99194.38;;;12.25;96.10
27840;BME280;15207;42.182;24.308;2024-03-06T07:34:31;99189.47;;;12.40;95.16
27840;BME280;15207;42.182;24.308;2024-03-06T07:36:56;99184.66;;;12.44;95.62
27840;BME280;15207;42.182;24.308;2024-03-06T07:39:23;99189.94;;;12.55;95.62
27840;BME280;15207;42.182;24.308;2024-03-06T07:41:49;99181.91;;;12.65;92.69
27840;BME280;15207;42.182;24.308;2024-03-06T07:44:14;99185.88;;;12.71;91.20
27840;BME280;15207;42.182;24.308;2024-03-06T07:46:40;99183.94;;;12.83;90.91
27840;BME280;15207;42.182;24.308;2024-03-06T07:49:05;99182.50;;;12.89;88.34
27840;BME280;15207;42.182;24.308;2024-03-06T07:51:31;99179.41;;;12.93;89.84
27840;BME280;15207;42.182;24.308;2024-03-06T07:53:57;99178.81;;;12.90;91.50
27840;BME280;15207;42.182;24.308;2024-03-06T07:56:23;99180.69;;;12.89;93.16
27840;BME280;15207;42.182;24.308;2024-03-06T07:58:49;99179.81;;;12.79;94.02
27840;BME280;15207;42.182;24.308;2024-03-06T08:01:15;99179.63;;;12.61;93.75
27840;BME280;15207;42.182;24.308;2024-03-06T08:03:41;99186.13;;;12.58;94.47
27840;BME280;15207;42.182;24.308;2024-03-06T08:06:08;99191.19;;;12.51;90.84
27840;BME280;15207;42.182;24.308;2024-03-06T08:08:34;99193.13;;;12.80;95.12
27840;BME280;15207;42.182;24.308;2024-03-06T08:10:59;99187.88;;;12.89;91.50
27840;BME280;15207;42.182;24.308;2024-03-06T08:13:24;99184.38;;;13.08;92.46
27840;BME280;15207;42.182;24.308;2024-03-06T08:15:50;99187.19;;;13.16;88.79
27840;BME280;15207;42.182;24.308;2024-03-06T08:18:16;99183.53;;;13.27;87.98
27840;BME280;15207;42.182;24.308;2024-03-06T08:20:41;99174.31;;;13.20;86.77
27840;BME280;15207;42.182;24.308;2024-03-06T08:23:07;99170.66;;;13.21;89.07
27840;BME280;15207;42.182;24.308;2024-03-06T08:25:32;99174.16;;;13.21;87.90
27840;BME280;15207;42.182;24.308;2024-03-06T08:27:58;99171.94;;;13.56;90.58
27840;BME280;15207;42.182;24.308;2024-03-06T08:30:24;99174.84;;;13.73;88.71
27840;BME280;15207;42.182;24.308;2024-03-06T08:32:50;99165.94;;;13.72;86.94
27840;BME280;15207;42.182;24.308;2024-03-06T08:35:16;99168.06;;;13.79;84.60
27840;BME280;15207;42.182;24.308;2024-03-06T08:37:43;99164.53;;;13.68;82.10
27840;BME280;15207;42.182;24.308;2024-03-06T08:40:10;99162.91;;;13.85;87.56
27840;BME280;15207;42.182;24.308;2024-03-06T08:42:43;99168.06;;;14.17;84.67
27840;BME280;15207;42.182;24.308;2024-03-06T08:45:09;99166.72;;;14.31;85.09
27840;BME280;15207;42.182;24.308;2024-03-06T08:47:35;99165.53;;;14.15;77.61
27840;BME280;15207;42.182;24.308;2024-03-06T08:50:00;99166.13;;;14.09;77.29
27840;BME280;15207;42.182;24.308;2024-03-06T08:52:29;99161.19;;;14.32;82.75
27840;BME280;15207;42.182;24.308;2024-03-06T08:54:58;99161.44;;;14.39;75.41
27840;BME280;15207;42.182;24.308;2024-03-06T08:57:23;99161.25;;;14.50;73.59
27840;BME280;15207;42.182;24.308;2024-03-06T08:59:50;99167.06;;;14.46;72.50
27840;BME280;15207;42.182;24.308;2024-03-06T09:02:18;99162.78;;;14.53;76.25
27840;BME280;15207;42.182;24.308;2024-03-06T09:04:44;99156.09;;;14.57;77.51
27840;BME280;15207;42.182;24.308;2024-03-06T09:07:09;99163.09;;;14.68;74.45
27840;BME280;15207;42.182;24.308;2024-03-06T09:09:35;99157.00;;;14.76;74.83
27840;BME280;15207;42.182;24.308;2024-03-06T09:12:03;99158.72;;;14.95;71.13
27840;BME280;15207;42.182;24.308;2024-03-06T09:14:30;99158.34;;;15.08;71.26
27840;BME280;15207;42.182;24.308;2024-03-06T09:16:57;99157.81;;;15.04;64.14
27840;BME280;15207;42.182;24.308;2024-03-06T09:19:22;99162.81;;;15.17;66.14
27840;BME280;15207;42.182;24.308;2024-03-06T09:21:48;99160.72;;;15.29;59.23
27840;BME280;15207;42.182;24.308;2024-03-06T09:24:13;99159.97;;;15.19;55.87
27840;BME280;15207;42.182;24.308;2024-03-06T09:26:39;99155.16;;;15.31;60.96
27840;BME280;15207;42.182;24.308;2024-03-06T09:29:04;99155.97;;;15.50;63.63
27840;BME280;15207;42.182;24.308;2024-03-06T09:31:30;99157.00;;;15.75;62.55
27840;BME280;15207;42.182;24.308;2024-03-06T09:33:55;99148.22;;;15.99;62.00
27840;BME280;15207;42.182;24.308;2024-03-06T09:36:21;99154.19;;;15.85;55.81
27840;BME280;15207;42.182;24.308;2024-03-06T09:38:46;99149.84;;;15.92;58.97
27840;BME280;15207;42.182;24.308;2024-03-06T09:41:12;99151.78;;;16.00;58.25
27840;BME280;15207;42.182;24.308;2024-03-06T09:43:37;99152.41;;;15.94;53.28
27840;BME280;15207;42.182;24.308;2024-03-06T09:46:03;99141.66;;;16.02;54.71
27840;BME280;15207;42.182;24.308;2024-03-06T09:48:29;99149.00;;;16.18;56.99
27840;BME280;15207;42.182;24.308;2024-03-06T09:51:00;99144.41;;;16.10;50.61
27840;BME280;15207;42.182;24.308;2024-03-06T09:53:26;99139.56;;;15.43;53.64
27840;BME280;15207;42.182;24.308;2024-03-06T09:55:52;99138.03;;;15.67;54.70
27840;BME280;15207;42.182;24.308;2024-03-06T09:58:17;99136.59;;;15.81;56.26
27840;BME280;15207;42.182;24.308;2024-03-06T10:00:44;99135.63;;;15.82;52.77
27840;BME280;15207;42.182;24.308;2024-03-06T10:03:10;99140.66;;;15.77;50.65
27840;BME280;15207;42.182;24.308;2024-03-06T10:05:36;99136.97;;;15.86;50.64
27840;BME280;15207;42.182;24.308;2024-03-06T10:08:02;99145.88;;;16.05;51.53
27840;BME280;15207;42.182;24.308;2024-03-06T10:10:29;99123.44;;;15.78;54.66
27840;BME280;15207;42.182;24.308;2024-03-06T10:12:55;99131.41;;;16.14;55.57
27840;BME280;15207;42.182;24.308;2024-03-06T10:15:22;99126.56;;;16.26;53.44
27840;BME280;15207;42.182;24.308;2024-03-06T10:17:48;99128.25;;;16.27;51.20
27840;BME280;15207;42.182;24.308;2024-03-06T10:22:44;99124.97;;;16.50;51.35
27840;BME280;15207;42.182;24.308;2024-03-06T10:25:10;99120.09;;;16.53;50.83
27840;BME280;15207;42.182;24.308;2024-03-06T10:27:35;99114.84;;;16.09;50.85
27840;BME280;15207;42.182;24.308;2024-03-06T10:30:02;99114.59;;;16.29;52.10
27840;BME280;15207;42.182;24.308;2024-03-06T10:32:30;99114.41;;;16.22;51.63
27840;BME280;15207;42.182;24.308;2024-03-06T10:34:55;99107.91;;;16.49;55.33
27840;BME280;15207;42.182;24.308;2024-03-06T10:37:22;99096.63;;;16.62;53.28
27840;BME280;15207;42.182;24.308;2024-03-06T10:39:51;99091.75;;;16.91;49.69
27840;BME280;15207;42.182;24.308;2024-03-06T10:42:20;99090.38;;;16.70;48.24
27840;BME280;15207;42.182;24.308;2024-03-06T10:44:55;99088.53;;;16.79;50.92
27840;BME280;15207;42.182;24.308;2024-03-06T10:47:21;99090.41;;;16.78;48.18
27840;BME280;15207;42.182;24.308;2024-03-06T10:49:47;99082.25;;;16.53;48.84
27840;BME280;15207;42.182;24.308;2024-03-06T10:52:14;99087.22;;;17.00;50.51
27840;BME280;15207;42.182;24.308;2024-03-06T10:54:43;99079.91;;;16.75;46.88
27840;BME280;15207;42.182;24.308;2024-03-06T10:57:11;99077.28;;;16.32;46.33
27840;BME280;15207;42.182;24.308;2024-03-06T10:59:37;99069.50;;;16.21;47.24
27840;BME280;15207;42.182;24.308;2024-03-06T11:02:03;99072.19;;;16.21;49.32
27840;BME280;15207;42.182;24.308;2024-03-06T11:04:29;99063.97;;;16.39;50.20
27840;BME280;15207;42.182;24.308;2024-03-06T11:07:00;99058.06;;;16.35;46.66
27840;BME280;15207;42.182;24.308;2024-03-06T11:09:26;99059.00;;;16.18;47.62
27840;BME280;15207;42.182;24.308;2024-03-06T11:11:53;99052.94;;;16.24;48.00
27840;BME280;15207;42.182;24.308;2024-03-06T11:14:21;99054.75;;;16.91;48.66
27840;BME280;15207;42.182;24.308;2024-03-06T11:17:09;99054.75;;;17.16;47.29
27840;BME280;15207;42.182;24.308;2024-03-06T11:28:23;99044.56;;;17.52;45.68
27840;BME280;15207;42.182;24.308;2024-03-06T11:31:09;99042.16;;;17.65;45.63
27840;BME280;15207;42.182;24.308;2024-03-06T11:33:45;99035.66;;;17.83;45.70
27840;BME280;15207;42.182;24.308;2024-03-06T11:38:56;99029.94;;;17.13;44.86
27840;BME280;15207;42.182;24.308;2024-03-06T11:41:22;99034.78;;;16.92;45.28
27840;BME280;15207;42.182;24.308;2024-03-06T11:43:49;99027.72;;;16.75;46.11
27840;BME280;15207;42.182;24.308;2024-03-06T11:46:18;99030.41;;;16.66;46.21
27840;BME280;15207;42.182;24.308;2024-03-06T11:48:50;99021.78;;;16.63;46.44
27840;BME280;15207;42.182;24.308;2024-03-06T11:51:16;99017.22;;;16.72;46.50
27840;BME280;15207;42.182;24.308;2024-03-06T11:53:42;99009.63;;;16.59;47.28
27840;BME280;15207;42.182;24.308;2024-03-06T11:56:10;99010.81;;;16.64;46.01
27840;BME280;15207;42.182;24.308;2024-03-06T11:58:35;99010.31;;;16.77;47.97
27840;BME280;15207;42.182;24.308;2024-03-06T12:01:01;99012.97;;;16.61;46.15
27840;BME280;15207;42.182;24.308;2024-03-06T12:03:27;99013.13;;;16.43;45.34
27840;BME280;15207;42.182;24.308;2024-03-06T12:05:52;99010.28;;;16.44;46.15
27840;BME280;15207;42.182;24.308;2024-03-06T12:08:18;99011.97;;;16.53;45.19
27840;BME280;15207;42.182;24.308;2024-03-06T12:10:46;99023.63;;;16.46;46.46
27840;BME280;15207;42.182;24.308;2024-03-06T12:13:13;99014.16;;;15.90;48.63
27840;BME280;15207;42.182;24.308;2024-03-06T12:15:42;99006.50;;;15.77;49.87
27840;BME280;15207;42.182;24.308;2024-03-06T12:18:07;99013.16;;;15.56;50.78
27840;BME280;15207;42.182;24.308;2024-03-06T12:20:33;99006.66;;;15.67;50.89
27840;BME280;15207;42.182;24.308;2024-03-06T12:22:58;99008.66;;;15.65;53.53
27840;BME280;15207;42.182;24.308;2024-03-06T12:25:25;98998.91;;;15.81;52.61
27840;BME280;15207;42.182;24.308;2024-03-06T12:27:51;98999.81;;;15.90;50.25
27840;BME280;15207;42.182;24.308;2024-03-06T12:30:21;99002.44;;;15.73;49.19
27840;BME280;15207;42.182;24.308;2024-03-06T12:32:59;99001.03;;;15.95;49.27
27840;BME280;15207;42.182;24.308;2024-03-06T12:35:29;98998.66;;;15.92;48.93
27840;BME280;15207;42.182;24.308;2024-03-06T12:37:55;98986.72;;;16.03;47.73
27840;BME280;15207;42.182;24.308;2024-03-06T12:40:20;98993.50;;;16.16;47.39
27840;BME280;15207;42.182;24.308;2024-03-06T12:42:46;98992.66;;;16.15;46.09
27840;BME280;15207;42.182;24.308;2024-03-06T12:45:12;98992.25;;;15.93;44.92
27840;BME280;15207;42.182;24.308;2024-03-06T12:47:42;98990.06;;;15.97;45.43
27840;BME280;15207;42.182;24.308;2024-03-06T12:50:08;98994.53;;;15.80;44.19
27840;BME280;15207;42.182;24.308;2024-03-06T12:52:34;98995.81;;;16.02;43.88
27840;BME280;15207;42.182;24.308;2024-03-06T12:55:00;98989.06;;;15.98;51.13
27840;BME280;15207;42.182;24.308;2024-03-06T12:57:26;98992.53;;;15.90;51.02
27840;BME280;15207;42.182;24.308;2024-03-06T12:59:53;98991.59;;;15.99;50.98